Time;durP1;ratioP1;P1;durP2;ratioP2;P2;SDS_P1;SDS_P2;PMS_P1;PMS_P2;Temp;Humidity;BMP_temperature;BMP_pressure;BME280_temperature;BME280_humidity;BME280_pressure;Samples;Min_cycle;Max_cycle;Signal;HPM_P1;HPM_P2
2022/01/13 00:01:05;;;;;;;1.40;0.50;;;;;;;;;;4197180;28;20063;-32
2022/01/13 00:03:06;;;;;;;1.73;0.40;;;;;;;;;;4197174;28;20106;-35
2022/01/13 00:05:07;;;;;;;1.35;0.70;;;;;;;;;;4197261;28;20135;-33
2022/01/13 00:07:10;;;;;;;1.80;0.50;;;;;;;;;;4196537;28;20048;-32
2022/01/13 00:09:11;;;;;;;2.08;0.50;;;;;;;;;;4196961;28;20119;-34
2022/01/13 00:11:12;;;;;;;1.83;0.75;;;;;;;;;;4197202;28;20098;-38
2022/01/13 00:13:22;;;;;;;1.52;0.50;;;;;;;;;;4196912;28;20048;-35
2022/01/13 00:15:36;;;;;;;1.27;0.30;;;;;;;;;;4197228;28;20094;-35
2022/01/13 00:17:57;;;;;;;0.95;0.40;;;;;;;;;;4196853;28;20048;-35
2022/01/13 00:20:19;;;;;;;1.63;0.47;;;;;;;;;;4197237;28;20044;-35
2022/01/13 00:22:27;;;;;;;1.17;0.43;;;;;;;;;;4196335;28;20049;-32
2022/01/13 00:24:28;;;;;;;1.52;0.40;;;;;;;;;;4196814;28;20059;-36
2022/01/13 00:26:31;;;;;;;1.10;0.50;;;;;;;;;;4196870;28;20536;-35
2022/01/13 00:28:33;;;;;;;1.33;0.50;;;;;;;;;;4196678;28;20095;-36
2022/01/13 00:30:34;;;;;;;0.95;0.75;;;;;;;;;;4196838;28;20056;-38
2022/01/13 00:32:35;;;;;;;1.25;0.60;;;;;;;;;;4196810;28;20140;-33
2022/01/13 00:34:36;;;;;;;1.65;0.60;;;;;;;;;;4197138;28;20049;-36
2022/01/13 00:36:37;;;;;;;1.80;0.63;;;;;;;;;;4196940;28;20545;-35
2022/01/13 00:38:38;;;;;;;0.70;0.40;;;;;;;;;;4196704;28;20052;-36
2022/01/13 00:40:39;;;;;;;2.13;0.60;;;;;;;;;;4197077;28;20095;-38
2022/01/13 00:42:40;;;;;;;1.77;0.43;;;;;;;;;;4196852;28;20198;-37
2022/01/13 00:44:43;;;;;;;1.10;0.52;;;;;;;;;;4196593;28;20049;-35
2022/01/13 00:46:46;;;;;;;1.40;0.55;;;;;;;;;;4196632;28;20114;-37
2022/01/13 00:48:48;;;;;;;0.90;0.40;;;;;;;;;;4196748;28;20381;-35
2022/01/13 00:50:49;;;;;;;1.35;0.60;;;;;;;;;;4196671;28;20056;-36
2022/01/13 00:52:50;;;;;;;1.35;0.40;;;;;;;;;;4195155;28;20052;-35
2022/01/13 00:54:51;;;;;;;0.60;0.30;;;;;;;;;;4197455;28;20527;-34
2022/01/13 00:56:52;;;;;;;1.13;0.30;;;;;;;;;;4199653;28;20048;-35
2022/01/13 00:58:53;;;;;;;1.50;0.40;;;;;;;;;;4199467;28;20059;-36
2022/01/13 01:00:54;;;;;;;1.98;0.40;;;;;;;;;;4199510;28;20094;-35
2022/01/13 01:02:55;;;;;;;2.13;0.32;;;;;;;;;;4199675;28;20067;-34
2022/01/13 01:04:56;;;;;;;0.95;0.35;;;;;;;;;;4198528;28;20045;-33
2022/01/13 01:06:57;;;;;;;1.35;0.32;;;;;;;;;;4198941;28;20099;-36
2022/01/13 01:08:58;;;;;;;1.38;0.40;;;;;;;;;;4199454;28;20189;-39
2022/01/13 01:11:01;;;;;;;2.72;0.60;;;;;;;;;;4199532;28;20049;-32
2022/01/13 01:13:10;;;;;;;0.60;0.30;;;;;;;;;;4197861;28;20454;-34
2022/01/13 01:15:12;;;;;;;1.58;0.40;;;;;;;;;;4199340;28;20056;-34
2022/01/13 01:17:17;;;;;;;1.23;0.50;;;;;;;;;;4199366;28;20048;-36
2022/01/13 01:19:26;;;;;;;1.00;0.30;;;;;;;;;;4199564;28;20106;-34
2022/01/13 01:23:28;;;;;;;1.75;0.40;;;;;;;;;;4198590;28;20056;-34
2022/01/13 01:27:38;;;;;;;0.95;0.30;;;;;;;;;;4199196;28;20057;-35
2022/01/13 01:29:44;;;;;;;1.48;0.50;;;;;;;;;;4199350;28;20053;-36
2022/01/13 01:31:47;;;;;;;1.23;0.52;;;;;;;;;;4199211;28;20056;-34
2022/01/13 01:34:00;;;;;;;1.42;0.60;;;;;;;;;;4199231;28;20053;-34
2022/01/13 01:36:01;;;;;;;2.25;0.68;;;;;;;;;;4199153;28;20082;-34
2022/01/13 01:38:02;;;;;;;1.20;0.40;;;;;;;;;;4197190;28;20052;-34
2022/01/13 01:40:03;;;;;;;0.90;0.20;;;;;;;;;;4199096;28;20052;-33
2022/01/13 01:42:04;;;;;;;1.33;0.60;;;;;;;;;;4197453;28;20053;-38
2022/01/13 01:44:09;;;;;;;1.52;0.50;;;;;;;;;;4199118;28;20098;-37
2022/01/13 01:46:10;;;;;;;1.10;0.40;;;;;;;;;;4197656;28;20453;-33
2022/01/13 01:48:18;;;;;;;1.55;0.50;;;;;;;;;;4198783;28;20052;-34
2022/01/13 01:50:21;;;;;;;0.57;0.25;;;;;;;;;;4199077;28;20049;-33
2022/01/13 01:52:22;;;;;;;1.17;0.47;;;;;;;;;;4198628;28;20048;-34
2022/01/13 01:54:24;;;;;;;1.23;0.40;;;;;;;;;;4197782;28;20056;-33
2022/01/13 01:56:25;;;;;;;1.00;0.30;;;;;;;;;;4198536;28;20048;-37
2022/01/13 01:58:27;;;;;;;1.77;0.60;;;;;;;;;;4198524;28;20105;-32
2022/01/13 02:00:28;;;;;;;2.42;0.57;;;;;;;;;;4197441;28;20040;-33
2022/01/13 02:02:30;;;;;;;1.65;0.60;;;;;;;;;;4198464;28;20469;-35
2022/01/13 02:04:31;;;;;;;1.20;0.57;;;;;;;;;;4198486;28;20048;-35
2022/01/13 02:06:32;;;;;;;0.95;0.30;;;;;;;;;;4198154;28;20140;-33
2022/01/13 02:08:33;;;;;;;2.45;0.70;;;;;;;;;;4197987;28;20052;-33
2022/01/13 02:10:33;;;;;;;0.98;0.63;;;;;;;;;;4198640;28;20078;-36
2022/01/13 02:12:43;;;;;;;1.00;0.40;;;;;;;;;;4198621;28;20090;-33
2022/01/13 02:14:55;;;;;;;1.45;0.57;;;;;;;;;;4198479;28;20109;-41
2022/01/13 02:16:57;;;;;;;1.10;0.40;;;;;;;;;;4198251;28;20048;-38
2022/01/13 02:18:58;;;;;;;1.48;0.52;;;;;;;;;;4198278;28;20041;-35
2022/01/13 02:21:00;;;;;;;1.55;0.52;;;;;;;;;;4198241;28;20185;-36
2022/01/13 02:23:02;;;;;;;0.90;0.32;;;;;;;;;;4197556;28;20109;-36
2022/01/13 02:25:03;;;;;;;1.15;0.40;;;;;;;;;;4198256;28;20554;-36
2022/01/13 02:27:05;;;;;;;1.05;0.30;;;;;;;;;;4198169;28;20500;-35
2022/01/13 02:29:06;;;;;;;0.73;0.30;;;;;;;;;;4197250;28;20048;-36
2022/01/13 02:31:08;;;;;;;0.93;0.30;;;;;;;;;;4198125;28;20446;-37
2022/01/13 02:33:08;;;;;;;1.05;0.38;;;;;;;;;;4197925;28;20105;-37
2022/01/13 02:35:09;;;;;;;0.80;0.30;;;;;;;;;;4198015;28;20137;-37
2022/01/13 02:37:10;;;;;;;1.08;0.47;;;;;;;;;;4197605;28;20098;-33
2022/01/13 02:39:11;;;;;;;1.67;0.52;;;;;;;;;;4197936;28;20147;-36
2022/01/13 02:41:12;;;;;;;0.95;0.20;;;;;;;;;;4198223;28;20051;-35
2022/01/13 02:43:13;;;;;;;0.60;0.30;;;;;;;;;;4197788;28;20060;-33
2022/01/13 02:45:16;;;;;;;2.25;0.40;;;;;;;;;;4197909;28;20166;-37
2022/01/13 02:47:33;;;;;;;1.23;0.50;;;;;;;;;;4197745;28;20499;-35
2022/01/13 02:49:34;;;;;;;1.17;0.40;;;;;;;;;;4197796;28;20048;-35
2022/01/13 02:51:36;;;;;;;1.50;0.47;;;;;;;;;;4197767;28;20106;-37
2022/01/13 02:53:37;;;;;;;1.05;0.30;;;;;;;;;;4197378;28;20052;-36
2022/01/13 02:55:38;;;;;;;1.80;0.47;;;;;;;;;;4197676;28;20495;-38
2022/01/13 02:57:39;;;;;;;1.75;0.73;;;;;;;;;;4197571;28;20182;-34
2022/01/13 02:59:40;;;;;;;1.25;0.45;;;;;;;;;;4197939;28;20052;-36
2022/01/13 03:01:41;;;;;;;1.88;0.60;;;;;;;;;;4197745;28;20119;-36
2022/01/13 03:03:43;;;;;;;1.45;0.30;;;;;;;;;;4197710;28;20049;-36
2022/01/13 03:05:44;;;;;;;1.27;0.30;;;;;;;;;;4197863;28;20099;-38
2022/01/13 03:07:45;;;;;;;1.45;0.45;;;;;;;;;;4197076;28;20048;-34
2022/01/13 03:09:46;;;;;;;1.20;0.35;;;;;;;;;;4197764;28;20076;-38
2022/01/13 03:11:47;;;;;;;1.52;0.45;;;;;;;;;;4197703;28;20408;-38
2022/01/13 03:13:48;;;;;;;0.82;0.28;;;;;;;;;;4197537;28;20385;-37
2022/01/13 03:15:49;;;;;;;1.05;0.50;;;;;;;;;;4197810;28;20056;-36
2022/01/13 03:17:51;;;;;;;1.20;0.60;;;;;;;;;;4196871;28;20056;-37
2022/01/13 03:19:51;;;;;;;1.83;0.47;;;;;;;;;;4197713;28;20086;-36
2022/01/13 03:21:52;;;;;;;1.85;0.68;;;;;;;;;;4196927;28;20036;-35
2022/01/13 03:23:53;;;;;;;1.52;0.32;;;;;;;;;;4197128;28;20424;-34
2022/01/13 03:25:54;;;;;;;1.40;0.50;;;;;;;;;;4196130;28;20543;-35
2022/01/13 03:28:03;;;;;;;1.88;0.50;;;;;;;;;;4197272;28;20056;-33
2022/01/13 03:30:06;;;;;;;0.98;0.32;;;;;;;;;;4197409;28;20056;-34
2022/01/13 03:32:07;;;;;;;0.52;0.35;;;;;;;;;;4196196;28;20110;-34
2022/01/13 03:34:09;;;;;;;2.03;0.80;;;;;;;;;;4197363;28;20126;-36
2022/01/13 03:36:10;;;;;;;1.13;0.35;;;;;;;;;;4195989;28;20067;-34
2022/01/13 03:38:11;;;;;;;1.23;0.40;;;;;;;;;;4196641;28;20373;-33
2022/01/13 03:40:12;;;;;;;1.70;0.45;;;;;;;;;;4197580;28;20053;-33
2022/01/13 03:42:13;;;;;;;1.23;0.43;;;;;;;;;;4197127;28;20477;-35
2022/01/13 03:44:27;;;;;;;1.00;0.32;;;;;;;;;;4197226;28;20105;-38
2022/01/13 03:46:28;;;;;;;0.75;0.30;;;;;;;;;;4197330;28;20492;-35
2022/01/13 03:48:29;;;;;;;1.92;0.45;;;;;;;;;;4197388;28;20067;-35
2022/01/13 03:50:30;;;;;;;2.05;0.50;;;;;;;;;;4197171;28;20095;-34
2022/01/13 03:52:31;;;;;;;2.05;0.50;;;;;;;;;;4196565;28;20130;-34
2022/01/13 03:54:33;;;;;;;0.93;0.40;;;;;;;;;;4197505;28;20067;-32
2022/01/13 03:56:53;;;;;;;1.85;0.55;;;;;;;;;;4197079;28;20098;-35
2022/01/13 03:58:54;;;;;;;;;;;;;;;;;;4197736;28;20048;-35
2022/01/13 04:01:13;;;;;;;1.17;0.47;;;;;;;;;;4197227;28;19922;-38
2022/01/13 04:03:14;;;;;;;1.13;0.50;;;;;;;;;;4197070;28;20492;-32
2022/01/13 04:05:15;;;;;;;0.90;0.30;;;;;;;;;;4197133;28;20095;-35
2022/01/13 04:07:21;;;;;;;1.48;0.57;;;;;;;;;;4196555;28;20049;-35
2022/01/13 04:09:21;;;;;;;1.40;0.50;;;;;;;;;;4197389;28;20052;-35
2022/01/13 04:11:25;;;;;;;1.30;0.40;;;;;;;;;;4196018;28;20550;-36
2022/01/13 04:15:47;;;;;;;0.63;0.40;;;;;;;;;;4197129;28;20109;-36
2022/01/13 04:17:48;;;;;;;0.73;0.40;;;;;;;;;;4196849;28;20053;-34
2022/01/13 04:19:49;;;;;;;1.60;0.43;;;;;;;;;;4196958;28;20440;-34
2022/01/13 04:21:50;;;;;;;1.23;0.50;;;;;;;;;;4196330;28;20048;-35
2022/01/13 04:23:56;;;;;;;1.58;0.40;;;;;;;;;;4196797;28;20102;-34
2022/01/13 04:25:58;;;;;;;1.40;0.52;;;;;;;;;;4196929;28;20412;-34
2022/01/13 04:28:02;;;;;;;0.98;0.60;;;;;;;;;;4197025;28;20098;-34
2022/01/13 04:30:33;;;;;;;0.70;0.40;;;;;;;;;;4199946;28;20056;-37
2022/01/13 04:32:32;;;;;;;1.25;0.40;;;;;;;;;;4199810;28;20078;-39
2022/01/13 04:34:33;;;;;;;2.15;0.65;;;;;;;;;;4200161;28;20111;-36
2022/01/13 04:36:34;;;;;;;1.45;0.63;;;;;;;;;;4199721;28;20044;-39
2022/01/13 04:38:35;;;;;;;1.30;0.45;;;;;;;;;;4199286;28;20058;-32
2022/01/13 04:40:43;;;;;;;1.35;0.40;;;;;;;;;;4199860;28;20048;-34
2022/01/13 04:42:45;;;;;;;0.40;0.20;;;;;;;;;;4199785;28;20049;-35
2022/01/13 04:44:46;;;;;;;1.60;0.30;;;;;;;;;;4200041;28;20070;-34
2022/01/13 04:46:49;;;;;;;1.67;0.50;;;;;;;;;;4199917;28;20095;-34
2022/01/13 04:48:50;;;;;;;0.93;0.30;;;;;;;;;;4199728;28;20061;-33
2022/01/13 04:50:50;;;;;;;0.77;0.32;;;;;;;;;;4199882;28;20110;-33
2022/01/13 04:52:52;;;;;;;1.90;0.30;;;;;;;;;;4199406;28;20091;-32
2022/01/13 04:54:52;;;;;;;0.95;0.40;;;;;;;;;;4199781;28;20048;-37
2022/01/13 04:57:15;;;;;;;1.40;0.50;;;;;;;;;;4199474;28;20158;-37
2022/01/13 04:59:16;;;;;;;1.05;0.30;;;;;;;;;;4199912;28;20052;-35
2022/01/13 05:01:17;;;;;;;2.15;0.52;;;;;;;;;;4199651;28;20482;-33
2022/01/13 05:03:18;;;;;;;1.40;0.52;;;;;;;;;;4199402;28;20091;-34
2022/01/13 05:05:18;;;;;;;1.75;0.55;;;;;;;;;;4198423;28;20087;-34
2022/01/13 05:07:19;;;;;;;1.90;0.50;;;;;;;;;;4199237;28;20052;-36
2022/01/13 05:09:20;;;;;;;1.58;0.50;;;;;;;;;;4199751;28;20163;-35
2022/01/13 05:11:21;;;;;;;1.55;0.60;;;;;;;;;;4199460;28;20056;-35
2022/01/13 05:13:22;;;;;;;0.98;0.30;;;;;;;;;;4199314;28;20102;-34
2022/01/13 05:15:26;;;;;;;2.00;0.40;;;;;;;;;;4199365;28;20123;-35
2022/01/13 05:20:07;;;;;;;1.70;0.60;;;;;;;;;;4199231;28;20052;-36
2022/01/13 05:24:14;;;;;;;1.13;0.40;;;;;;;;;;4199100;28;20381;-35
2022/01/13 05:26:15;;;;;;;1.35;0.40;;;;;;;;;;4199491;28;20099;-33
2022/01/13 05:28:16;;;;;;;1.38;0.50;;;;;;;;;;4199103;28;20041;-32
2022/01/13 05:30:18;;;;;;;1.42;0.75;;;;;;;;;;4199346;28;20105;-32
2022/01/13 05:32:19;;;;;;;1.40;0.60;;;;;;;;;;4198991;28;20433;-33
2022/01/13 05:34:20;;;;;;;0.80;0.30;;;;;;;;;;4199047;28;20094;-33
2022/01/13 05:36:21;;;;;;;2.80;0.40;;;;;;;;;;4199221;28;20118;-33
2022/01/13 05:38:22;;;;;;;1.85;0.50;;;;;;;;;;4198438;28;20105;-34
2022/01/13 05:40:23;;;;;;;0.68;0.28;;;;;;;;;;4198626;28;20044;-33
2022/01/13 05:42:24;;;;;;;0.85;0.40;;;;;;;;;;4198948;28;20124;-36
2022/01/13 05:44:25;;;;;;;1.20;0.40;;;;;;;;;;4199155;28;20078;-32
2022/01/13 05:46:26;;;;;;;1.15;0.40;;;;;;;;;;4195239;28;20049;-34
2022/01/13 05:48:27;;;;;;;1.35;0.30;;;;;;;;;;4184412;28;20504;-37
2022/01/13 05:50:29;;;;;;;0.77;0.30;;;;;;;;;;4189556;28;20056;-35
2022/01/13 05:52:29;;;;;;;1.10;0.30;;;;;;;;;;4198761;28;20041;-36
2022/01/13 05:54:30;;;;;;;1.25;0.50;;;;;;;;;;4198963;28;20136;-36
2022/01/13 05:56:31;;;;;;;0.57;0.32;;;;;;;;;;4198501;28;20084;-38
2022/01/13 05:58:32;;;;;;;1.00;0.35;;;;;;;;;;4198696;28;20451;-33
2022/01/13 06:00:33;;;;;;;0.45;0.20;;;;;;;;;;4197621;28;20098;-35
2022/01/13 06:02:34;;;;;;;1.35;0.70;;;;;;;;;;4196675;28;20439;-33
2022/01/13 06:04:35;;;;;;;0.38;0.15;;;;;;;;;;4189533;28;20056;-32
2022/01/13 06:06:36;;;;;;;1.75;0.45;;;;;;;;;;4195987;28;20118;-34
2022/01/13 06:08:37;;;;;;;0.95;0.40;;;;;;;;;;4186039;28;20045;-32
2022/01/13 06:10:43;;;;;;;1.13;0.20;;;;;;;;;;4182389;28;20052;-33
2022/01/13 06:12:44;;;;;;;1.08;0.57;;;;;;;;;;4180771;28;20052;-35
2022/01/13 06:14:45;;;;;;;0.90;0.32;;;;;;;;;;4182130;28;20049;-34
2022/01/13 06:16:46;;;;;;;0.50;0.30;;;;;;;;;;4181747;28;20510;-34
2022/01/13 06:18:47;;;;;;;0.88;0.35;;;;;;;;;;4182218;28;20106;-34
2022/01/13 06:20:48;;;;;;;0.40;0.30;;;;;;;;;;4181536;28;20095;-36
2022/01/13 06:22:50;;;;;;;0.90;0.30;;;;;;;;;;4180015;28;20053;-36
2022/01/13 06:24:52;;;;;;;0.77;0.30;;;;;;;;;;4182017;28;20444;-32
2022/01/13 06:26:53;;;;;;;0.68;0.30;;;;;;;;;;4181949;28;20057;-37
2022/01/13 06:28:54;;;;;;;1.35;0.22;;;;;;;;;;4182043;28;20486;-35
2022/01/13 06:30:55;;;;;;;1.25;0.35;;;;;;;;;;4182509;28;20341;-35
2022/01/13 06:32:56;;;;;;;0.88;0.28;;;;;;;;;;4189588;28;20133;-34
2022/01/13 06:34:57;;;;;;;1.23;0.32;;;;;;;;;;4184730;28;20477;-36
2022/01/13 06:36:58;;;;;;;0.73;0.30;;;;;;;;;;4181131;28;20134;-34
2022/01/13 06:38:59;;;;;;;2.70;0.32;;;;;;;;;;4181051;28;20063;-33
2022/01/13 06:41:01;;;;;;;2.67;0.73;;;;;;;;;;4185282;28;20060;-33
2022/01/13 06:43:02;;;;;;;4.90;0.40;;;;;;;;;;4187892;28;20049;-35
2022/01/13 06:45:04;;;;;;;4.25;0.40;;;;;;;;;;4194613;28;20645;-32
2022/01/13 06:47:05;;;;;;;1.98;0.47;;;;;;;;;;4192446;28;20048;-33
2022/01/13 06:49:06;;;;;;;4.28;0.40;;;;;;;;;;4182523;28;20049;-34
2022/01/13 06:51:07;;;;;;;2.42;0.47;;;;;;;;;;4188588;28;20131;-32
2022/01/13 06:53:08;;;;;;;2.75;0.80;;;;;;;;;;4179919;28;20098;-34
2022/01/13 06:55:09;;;;;;;1.23;0.28;;;;;;;;;;4195856;28;20093;-33
2022/01/13 06:57:10;;;;;;;3.10;0.55;;;;;;;;;;4181610;28;20060;-33
2022/01/13 06:59:13;;;;;;;1.55;0.20;;;;;;;;;;4187466;28;20053;-37
2022/01/13 07:01:14;;;;;;;2.40;0.57;;;;;;;;;;4180623;28;20044;-34
2022/01/13 07:03:15;;;;;;;3.85;0.50;;;;;;;;;;4180799;28;20074;-34
2022/01/13 07:05:16;;;;;;;4.80;0.57;;;;;;;;;;4182476;28;20060;-34
2022/01/13 07:07:17;;;;;;;1.70;0.68;;;;;;;;;;4183964;28;20489;-38
2022/01/13 07:09:18;;;;;;;2.83;0.65;;;;;;;;;;4184757;28;20429;-34
2022/01/13 07:11:19;;;;;;;2.88;1.10;;;;;;;;;;4181026;28;20111;-33
2022/01/13 07:13:20;;;;;;;3.92;0.50;;;;;;;;;;4188827;28;20083;-36
2022/01/13 07:15:21;;;;;;;2.08;0.40;;;;;;;;;;4192587;28;20056;-35
2022/01/13 07:17:21;;;;;;;3.63;0.95;;;;;;;;;;4197023;28;20416;-33
2022/01/13 07:19:22;;;;;;;2.25;0.50;;;;;;;;;;4195050;28;20162;-34
2022/01/13 07:21:27;;;;;;;2.88;0.55;;;;;;;;;;4192227;28;20051;-35
2022/01/13 07:23:28;;;;;;;3.60;0.50;;;;;;;;;;4194600;28;20052;-33
2022/01/13 07:25:29;;;;;;;3.55;0.43;;;;;;;;;;4195962;28;20048;-36
2022/01/13 07:27:29;;;;;;;1.63;0.57;;;;;;;;;;4196142;28;20095;-39
2022/01/13 07:29:30;;;;;;;3.65;0.50;;;;;;;;;;4183678;28;20106;-37
2022/01/13 07:31:31;;;;;;;3.28;0.50;;;;;;;;;;4180980;28;20052;-33
2022/01/13 07:33:32;;;;;;;6.25;0.55;;;;;;;;;;4191721;28;20052;-36
2022/01/13 07:35:34;;;;;;;3.50;0.52;;;;;;;;;;4187886;28;20098;-35
2022/01/13 07:37:35;;;;;;;1.55;0.50;;;;;;;;;;4188231;28;20398;-37
2022/01/13 07:39:35;;;;;;;5.63;0.95;;;;;;;;;;4181884;28;20087;-34
2022/01/13 07:41:37;;;;;;;3.70;0.90;;;;;;;;;;4190291;28;20373;-41
2022/01/13 07:43:42;;;;;;;5.72;0.50;;;;;;;;;;4183079;28;20044;-33
2022/01/13 07:45:43;;;;;;;3.10;0.82;;;;;;;;;;4186332;28;20041;-39
2022/01/13 07:47:45;;;;;;;3.65;0.50;;;;;;;;;;4183298;28;20470;-35
2022/01/13 07:49:46;;;;;;;6.10;0.52;;;;;;;;;;4191451;28;20488;-37
2022/01/13 07:51:47;;;;;;;5.10;0.77;;;;;;;;;;4194345;28;20049;-33
2022/01/13 07:53:48;;;;;;;2.67;0.47;;;;;;;;;;4187818;28;20082;-40
2022/01/13 07:55:49;;;;;;;2.97;0.40;;;;;;;;;;4194076;28;20049;-33
2022/01/13 07:57:50;;;;;;;4.65;0.60;;;;;;;;;;4193624;28;20091;-35
2022/01/13 07:59:52;;;;;;;3.10;0.40;;;;;;;;;;4193033;28;20079;-34
2022/01/13 08:01:57;;;;;;;1.83;0.35;;;;;;;;;;4191627;28;20094;-37
2022/01/13 08:03:58;;;;;;;7.18;0.60;;;;;;;;;;4191146;28;20052;-42
2022/01/13 08:06:00;;;;;;;1.10;0.40;;;;;;;;;;4190286;28;20079;-40
2022/01/13 08:08:01;;;;;;;1.23;0.30;;;;;;;;;;4194158;28;20404;-35
2022/01/13 08:10:02;;;;;;;3.55;0.40;;;;;;;;;;4197252;28;20053;-35
2022/01/13 08:12:03;;;;;;;1.80;0.52;;;;;;;;;;4197657;28;20377;-33
2022/01/13 08:14:04;;;;;;;1.15;0.30;;;;;;;;;;4197020;28;20044;-35
2022/01/13 08:16:09;;;;;;;1.30;0.68;;;;;;;;;;4194884;28;20105;-36
2022/01/13 08:20:30;;;;;;;1.35;0.30;;;;;;;;;;4189927;28;20044;-34
2022/01/13 08:22:31;;;;;;;1.95;0.60;;;;;;;;;;4195072;28;20041;-33
2022/01/13 08:24:33;;;;;;;1.42;0.52;;;;;;;;;;4195717;28;20102;-38
2022/01/13 08:26:33;;;;;;;2.50;0.60;;;;;;;;;;4194824;28;20119;-38
2022/01/13 08:28:35;;;;;;;2.80;0.52;;;;;;;;;;4194004;28;20477;-34
2022/01/13 08:30:36;;;;;;;3.40;0.73;;;;;;;;;;4194417;28;20053;-38
2022/01/13 08:32:37;;;;;;;1.08;0.20;;;;;;;;;;4195161;28;20086;-36
2022/01/13 08:34:38;;;;;;;1.95;0.30;;;;;;;;;;4192930;28;20044;-35
2022/01/13 08:36:39;;;;;;;1.10;0.30;;;;;;;;;;4189784;28;20082;-36
2022/01/13 08:38:40;;;;;;;1.75;0.30;;;;;;;;;;4190530;28;20463;-35
2022/01/13 08:40:45;;;;;;;0.82;0.40;;;;;;;;;;4195358;28;20049;-34
2022/01/13 08:42:46;;;;;;;1.35;0.45;;;;;;;;;;4193075;28;20053;-37
2022/01/13 08:44:48;;;;;;;3.53;0.40;;;;;;;;;;4189806;28;20381;-34
2022/01/13 08:46:49;;;;;;;0.40;0.30;;;;;;;;;;4190857;28;20109;-34
2022/01/13 08:48:50;;;;;;;0.95;0.20;;;;;;;;;;4189870;28;20080;-32
2022/01/13 08:50:52;;;;;;;0.95;0.40;;;;;;;;;;4191425;28;20052;-35
2022/01/13 08:52:53;;;;;;;2.25;0.30;;;;;;;;;;4190308;28;20066;-34
2022/01/13 08:54:55;;;;;;;1.45;0.50;;;;;;;;;;4188982;28;20048;-37
2022/01/13 08:56:57;;;;;;;1.25;0.40;;;;;;;;;;4189623;28;20102;-37
2022/01/13 08:58:57;;;;;;;0.70;0.40;;;;;;;;;;4193620;28;20053;-33
2022/01/13 09:00:58;;;;;;;0.85;0.40;;;;;;;;;;4194272;28;20055;-35
2022/01/13 09:03:00;;;;;;;0.82;0.40;;;;;;;;;;4190753;28;20056;-36
2022/01/13 09:05:02;;;;;;;1.05;0.30;;;;;;;;;;4184265;28;20056;-40
2022/01/13 09:07:03;;;;;;;1.13;0.38;;;;;;;;;;4184700;28;20057;-37
2022/01/13 09:09:04;;;;;;;0.68;0.30;;;;;;;;;;4192936;28;20582;-35
2022/01/13 09:11:05;;;;;;;1.52;0.38;;;;;;;;;;4189735;28;20508;-36
2022/01/13 09:13:12;;;;;;;1.83;0.32;;;;;;;;;;4194121;28;20105;-35
2022/01/13 09:15:30;;;;;;;0.60;0.20;;;;;;;;;;4189910;28;20102;-38
2022/01/13 09:17:31;;;;;;;0.80;0.28;;;;;;;;;;4189065;28;20466;-32
2022/01/13 09:19:32;;;;;;;0.60;0.30;;;;;;;;;;4193110;28;20052;-35
2022/01/13 09:21:33;;;;;;;1.40;0.40;;;;;;;;;;4191300;28;20194;-34
2022/01/13 09:23:36;;;;;;;0.90;0.30;;;;;;;;;;4191517;28;20072;-34
2022/01/13 09:25:37;;;;;;;1.13;0.40;;;;;;;;;;4186415;28;20446;-38
2022/01/13 09:27:40;;;;;;;0.70;0.28;;;;;;;;;;4189565;28;20052;-31
2022/01/13 09:29:41;;;;;;;0.98;0.40;;;;;;;;;;4192658;28;20056;-39
2022/01/13 09:31:42;;;;;;;0.80;0.30;;;;;;;;;;4195397;28;20144;-34
2022/01/13 09:33:43;;;;;;;1.35;0.50;;;;;;;;;;4196174;28;20399;-32
2022/01/13 09:35:44;;;;;;;1.45;0.60;;;;;;;;;;4196103;28;20083;-35
2022/01/13 09:37:45;;;;;;;0.57;0.28;;;;;;;;;;4192898;28;20131;-34
2022/01/13 09:39:46;;;;;;;4.03;0.30;;;;;;;;;;4190973;28;20177;-37
2022/01/13 09:41:48;;;;;;;0.52;0.30;;;;;;;;;;4190568;28;20079;-33
2022/01/13 09:43:49;;;;;;;0.70;0.52;;;;;;;;;;4193333;28;20045;-32
2022/01/13 09:45:51;;;;;;;0.43;0.20;;;;;;;;;;4186806;28;20369;-32
2022/01/13 09:47:53;;;;;;;0.90;0.30;;;;;;;;;;4188987;28;20053;-34
2022/01/13 09:49:55;;;;;;;0.90;0.25;;;;;;;;;;4187248;28;20449;-40
2022/01/13 09:51:55;;;;;;;1.15;0.43;;;;;;;;;;4186335;28;20082;-34
2022/01/13 09:53:56;;;;;;;1.20;0.43;;;;;;;;;;4186901;28;20060;-38
2022/01/13 09:55:57;;;;;;;0.70;0.20;;;;;;;;;;4187467;28;20052;-35
2022/01/13 09:58:03;;;;;;;1.85;0.70;;;;;;;;;;4185374;28;20055;-33
2022/01/13 10:00:04;;;;;;;1.15;0.20;;;;;;;;;;4190486;28;20097;-36
2022/01/13 10:02:05;;;;;;;0.85;0.40;;;;;;;;;;4195043;28;20154;-33
2022/01/13 10:04:06;;;;;;;2.10;0.25;;;;;;;;;;4192915;28;20392;-34
2022/01/13 10:06:09;;;;;;;1.40;0.28;;;;;;;;;;4192751;28;20131;-37
2022/01/13 10:08:10;;;;;;;1.35;0.28;;;;;;;;;;4188161;28;20437;-35
2022/01/13 10:10:15;;;;;;;1.60;0.38;;;;;;;;;;4188499;28;20198;-32
2022/01/13 10:12:22;;;;;;;0.82;0.17;;;;;;;;;;4191897;28;20101;-36
2022/01/13 10:16:26;;;;;;;0.68;0.28;;;;;;;;;;4191158;28;20399;-36
2022/01/13 10:18:38;;;;;;;1.45;0.30;;;;;;;;;;4189750;28;20052;-36
2022/01/13 10:20:39;;;;;;;0.90;0.45;;;;;;;;;;4192319;28;20052;-37
2022/01/13 10:22:40;;;;;;;1.95;0.40;;;;;;;;;;4185238;28;20125;-42
2022/01/13 10:24:45;;;;;;;0.88;0.28;;;;;;;;;;4188416;28;20048;-33
2022/01/13 10:26:59;;;;;;;1.23;0.30;;;;;;;;;;4187303;28;20056;-36
2022/01/13 10:29:00;;;;;;;1.23;0.30;;;;;;;;;;4183439;28;20397;-39
2022/01/13 10:31:01;;;;;;;1.00;0.30;;;;;;;;;;4189510;28;20068;-39
2022/01/13 10:33:13;;;;;;;1.25;0.30;;;;;;;;;;4184706;28;20052;-35
2022/01/13 10:35:16;;;;;;;0.50;0.30;;;;;;;;;;4184807;28;20094;-33
2022/01/13 10:37:19;;;;;;;0.75;0.40;;;;;;;;;;4187881;28;20061;-33
2022/01/13 10:39:19;;;;;;;1.52;0.30;;;;;;;;;;4186961;28;20119;-35
2022/01/13 10:41:37;;;;;;;1.02;0.40;;;;;;;;;;4184386;28;20163;-38
2022/01/13 10:43:38;;;;;;;0.40;0.20;;;;;;;;;;4190097;28;20049;-32
2022/01/13 10:45:39;;;;;;;1.20;0.30;;;;;;;;;;4190364;28;20174;-36
2022/01/13 10:47:40;;;;;;;0.30;0.20;;;;;;;;;;4187539;28;21013;-38
2022/01/13 10:49:42;;;;;;;0.47;0.30;;;;;;;;;;4186394;28;20057;-37
2022/01/13 10:51:43;;;;;;;0.60;0.30;;;;;;;;;;4185459;28;20128;-36
2022/01/13 10:53:44;;;;;;;0.90;0.43;;;;;;;;;;4191231;28;20049;-35
2022/01/13 10:55:50;;;;;;;0.73;0.22;;;;;;;;;;4188228;28;20480;-34
2022/01/13 10:57:51;;;;;;;2.50;0.30;;;;;;;;;;4189243;28;20052;-34
2022/01/13 10:59:52;;;;;;;0.63;0.20;;;;;;;;;;4189978;28;20389;-36
2022/01/13 11:01:53;;;;;;;1.00;0.30;;;;;;;;;;4180164;28;20101;-40
2022/01/13 11:03:54;;;;;;;0.43;0.20;;;;;;;;;;4189980;28;20101;-37
2022/01/13 11:05:57;;;;;;;1.48;0.40;;;;;;;;;;4191054;28;20048;-36
2022/01/13 11:07:59;;;;;;;0.35;0.20;;;;;;;;;;4189289;28;20052;-40
2022/01/13 11:10:01;;;;;;;0.30;0.13;;;;;;;;;;4190021;28;20060;-35
2022/01/13 11:12:03;;;;;;;0.50;0.30;;;;;;;;;;4189929;28;20681;-34
2022/01/13 11:14:10;;;;;;;1.55;0.30;;;;;;;;;;4185831;28;20463;-37
2022/01/13 11:16:11;;;;;;;0.45;0.25;;;;;;;;;;4192933;28;20044;-31
2022/01/13 11:18:12;;;;;;;0.40;0.20;;;;;;;;;;4195435;28;21422;-33
2022/01/13 11:20:15;;;;;;;0.73;0.30;;;;;;;;;;4192177;28;20425;-33
2022/01/13 11:22:17;;;;;;;0.57;0.20;;;;;;;;;;4189062;28;20048;-35
2022/01/13 11:24:18;;;;;;;1.38;0.40;;;;;;;;;;4191306;28;20108;-38
2022/01/13 11:26:26;;;;;;;0.63;0.30;;;;;;;;;;4185114;28;20048;-36
2022/01/13 11:28:28;;;;;;;2.45;0.35;;;;;;;;;;4174862;28;20157;-33
2022/01/13 11:30:29;;;;;;;0.63;0.50;;;;;;;;;;4188382;28;20060;-36
2022/01/13 11:32:30;;;;;;;0.30;0.15;;;;;;;;;;4188868;28;20078;-40
2022/01/13 11:34:31;;;;;;;1.15;0.40;;;;;;;;;;4187821;28;20689;-37
2022/01/13 11:36:32;;;;;;;1.42;0.40;;;;;;;;;;4189351;28;20056;-34
2022/01/13 11:38:33;;;;;;;1.45;0.45;;;;;;;;;;4188802;28;20044;-39
2022/01/13 11:40:39;;;;;;;1.30;0.30;;;;;;;;;;4182192;28;20051;-35
2022/01/13 11:42:46;;;;;;;0.30;0.20;;;;;;;;;;4187801;28;20078;-37
2022/01/13 11:45:09;;;;;;;2.60;0.43;;;;;;;;;;4187035;28;20041;-34
2022/01/13 11:47:24;;;;;;;0.85;0.30;;;;;;;;;;4188371;28;20090;-36
2022/01/13 11:49:40;;;;;;;1.15;0.40;;;;;;;;;;4184933;28;20053;-38
2022/01/13 11:51:41;;;;;;;0.60;0.35;;;;;;;;;;4189018;28;20060;-39
2022/01/13 11:54:08;;;;;;;0.82;0.30;;;;;;;;;;4185468;28;20053;-38
2022/01/13 11:56:09;;;;;;;0.93;0.25;;;;;;;;;;4183054;28;20154;-35
2022/01/13 11:58:10;;;;;;;1.85;0.20;;;;;;;;;;4186592;28;20082;-33
2022/01/13 12:00:23;;;;;;;0.80;0.20;;;;;;;;;;4187389;28;20145;-35
2022/01/13 12:02:43;;;;;;;0.40;0.20;;;;;;;;;;4181203;28;20435;-38
2022/01/13 12:05:04;;;;;;;0.80;0.40;;;;;;;;;;4183630;28;20052;-35
2022/01/13 12:07:25;;;;;;;0.63;0.30;;;;;;;;;;4189742;28;20045;-38
2022/01/13 12:09:26;;;;;;;1.10;0.20;;;;;;;;;;4189378;28;20488;-33
2022/01/13 12:11:45;;;;;;;1.40;0.55;;;;;;;;;;4184931;28;20135;-36
2022/01/13 12:13:49;;;;;;;1.27;0.20;;;;;;;;;;4183189;28;20447;-32
2022/01/13 12:15:50;;;;;;;0.80;0.20;;;;;;;;;;4185111;28;20437;-35
2022/01/13 12:17:57;;;;;;;0.80;0.30;;;;;;;;;;4182432;28;21062;-34
2022/01/13 12:20:03;;;;;;;2.22;0.30;;;;;;;;;;4183984;28;20048;-37
2022/01/13 12:22:11;;;;;;;0.50;0.20;;;;;;;;;;4184922;28;20059;-38
2022/01/13 12:24:18;;;;;;;0.80;0.40;;;;;;;;;;4189230;28;20064;-38
2022/01/13 12:26:30;;;;;;;0.68;0.30;;;;;;;;;;4188717;28;20495;-37
2022/01/13 12:28:32;;;;;;;0.80;0.40;;;;;;;;;;4187467;28;20445;-36
2022/01/13 12:30:34;;;;;;;0.68;0.20;;;;;;;;;;4184074;28;20522;-38
2022/01/13 12:32:35;;;;;;;0.57;0.30;;;;;;;;;;4184048;28;20105;-36